Time;durP1;ratioP1;P1;durP2;ratioP2;P2;SDS_P1;SDS_P2;PMS_P1;PMS_P2;Temp;Humidity;BMP_temperature;BMP_pressure;BME280_temperature;BME280_humidity;BME280_pressure;Samples;Min_cycle;Max_cycle;Signal;HPM_P1;HPM_P2
2021/04/19 00:00:48;;;;;;;14.15;12.68;;;8.20;99.90;;;;;;4900651;29;20230;-81
2021/04/19 00:03:15;;;;;;;19.60;14.27;;;8.10;99.90;;;;;;4904043;29;20583;-82
2021/04/19 00:05:42;;;;;;;13.90;12.60;;;8.10;99.90;;;;;;4903915;29;20715;-81
2021/04/19 00:08:08;;;;;;;17.08;12.90;;;8.10;99.90;;;;;;4904678;29;20293;-81
2021/04/19 00:10:35;;;;;;;14.40;12.95;;;8.10;99.90;;;;;;4904029;29;20218;-81
2021/04/19 00:13:01;;;;;;;13.07;11.77;;;8.20;99.90;;;;;;4904343;29;20670;-82
2021/04/19 00:15:29;;;;;;;14.68;13.18;;;8.20;99.90;;;;;;4903783;29;20239;-80
2021/04/19 00:17:56;;;;;;;15.00;13.50;;;8.10;99.90;;;;;;4904102;29;20729;-81
2021/04/19 00:20:22;;;;;;;15.23;13.23;;;8.10;99.90;;;;;;4903580;29;20211;-80
2021/04/19 00:22:50;;;;;;;14.88;13.38;;;8.10;99.90;;;;;;4903781;29;20282;-80
2021/04/19 00:25:17;;;;;;;15.13;13.70;;;8.10;99.90;;;;;;4903562;29;20227;-81
2021/04/19 00:27:44;;;;;;;17.23;12.60;;;8.10;99.90;;;;;;4903642;29;20211;-81
2021/04/19 00:30:12;;;;;;;15.63;12.55;;;8.10;99.90;;;;;;4903093;29;20214;-80
2021/04/19 00:32:38;;;;;;;14.73;13.20;;;8.10;99.90;;;;;;4905669;29;20218;-77
2021/04/19 00:35:06;;;;;;;13.35;12.02;;;8.10;99.90;;;;;;4908215;29;20246;-77
2021/04/19 00:37:33;;;;;;;17.38;14.63;;;8.00;99.90;;;;;;4907911;29;20266;-77
2021/04/19 00:40:00;;;;;;;13.75;12.40;;;8.00;99.90;;;;;;4907213;29;20568;-77
2021/04/19 00:42:26;;;;;;;14.05;12.57;;;8.00;99.90;;;;;;4903712;29;20215;-79
2021/04/19 00:44:52;;;;;;;18.38;13.35;;;8.00;99.90;;;;;;4903233;29;20256;-81
2021/04/19 00:47:19;;;;;;;14.77;12.05;;;8.00;99.90;;;;;;4903017;29;20214;-81
2021/04/19 00:49:45;;;;;;;13.43;12.13;;;8.00;99.90;;;;;;4902414;29;20709;-80
2021/04/19 00:52:12;;;;;;;17.20;15.35;;;7.90;99.90;;;;;;4903194;29;20678;-80
2021/04/19 00:54:38;;;;;;;15.02;12.60;;;7.90;99.90;;;;;;4903213;29;20235;-80
2021/04/19 00:57:06;;;;;;;15.77;14.10;;;7.80;99.90;;;;;;4902996;29;20218;-80
2021/04/19 00:59:33;;;;;;;13.85;12.65;;;7.80;99.90;;;;;;4902967;29;20707;-81
2021/04/19 01:02:00;;;;;;;13.98;12.68;;;7.80;99.90;;;;;;4902995;29;20306;-81
2021/04/19 01:04:26;;;;;;;15.48;13.90;;;7.80;99.90;;;;;;4902574;29;20224;-80
2021/04/19 01:06:54;;;;;;;13.25;11.70;;;7.80;99.90;;;;;;4902786;29;20207;-81
2021/04/19 01:09:21;;;;;;;15.88;14.00;;;7.80;99.90;;;;;;4902733;29;20208;-81
2021/04/19 01:11:47;;;;;;;14.57;13.18;;;7.80;99.90;;;;;;4902814;29;20219;-81
2021/04/19 01:14:14;;;;;;;13.82;11.70;;;7.80;99.90;;;;;;4902945;29;20215;-81
2021/04/19 01:16:41;;;;;;;14.90;12.75;;;7.80;99.90;;;;;;4902876;29;20211;-80
2021/04/19 01:19:07;;;;;;;16.20;14.52;;;7.80;99.90;;;;;;4903078;29;20216;-81
2021/04/19 01:21:34;;;;;;;14.02;12.57;;;7.70;99.90;;;;;;4902804;29;20222;-80
2021/04/19 01:24:00;;;;;;;13.75;12.32;;;7.70;99.90;;;;;;4902573;29;20222;-80
2021/04/19 01:26:27;;;;;;;18.75;14.25;;;7.70;99.90;;;;;;4902667;29;20238;-80
2021/04/19 01:28:53;;;;;;;14.18;12.75;;;7.80;99.90;;;;;;4902827;29;20271;-81
2021/04/19 01:31:20;;;;;;;15.68;13.73;;;7.70;99.90;;;;;;4902465;29;20622;-81
2021/04/19 01:33:47;;;;;;;13.35;12.05;;;7.80;99.90;;;;;;4902943;29;20219;-81
2021/04/19 01:36:13;;;;;;;15.18;13.60;;;7.80;99.90;;;;;;4902336;29;20239;-79
2021/04/19 01:38:40;;;;;;;14.80;12.95;;;7.90;99.90;;;;;;4901965;29;20218;-80
2021/04/19 01:41:06;;;;;;;13.70;12.30;;;7.90;99.90;;;;;;4902416;29;20575;-81
2021/04/19 01:43:33;;;;;;;14.10;12.32;;;7.90;99.90;;;;;;4902016;29;20202;-80
2021/04/19 01:45:59;;;;;;;17.27;14.43;;;7.90;99.90;;;;;;4902172;29;20235;-81
2021/04/19 01:48:26;;;;;;;14.75;13.27;;;7.90;99.90;;;;;;4901903;29;20215;-80
2021/04/19 01:50:54;;;;;;;14.50;13.00;;;8.00;99.90;;;;;;4902132;29;20208;-80
2021/04/19 01:53:21;;;;;;;16.30;12.82;;;8.00;99.90;;;;;;4902161;29;20214;-80
2021/04/19 01:55:48;;;;;;;17.52;13.88;;;8.00;99.90;;;;;;4902082;29;20235;-81
2021/04/19 01:58:17;;;;;;;15.85;12.45;;;8.00;99.90;;;;;;4902034;29;20219;-81
2021/04/19 02:00:48;;;;;;;14.60;13.00;;;7.90;99.90;;;;;;4902255;29;20211;-80
2021/04/19 02:03:28;;;;;;;16.50;14.02;;;8.00;99.90;;;;;;4901837;29;20218;-80
2021/04/19 02:06:05;;;;;;;19.13;14.88;;;8.00;99.90;;;;;;4901500;29;20751;-81
2021/04/19 02:08:38;;;;;;;14.63;13.27;;;8.00;99.90;;;;;;4901857;29;20250;-80
2021/04/19 02:11:17;;;;;;;16.55;12.45;;;8.00;99.90;;;;;;4902169;29;20233;-81
2021/04/19 02:13:51;;;;;;;15.20;13.70;;;7.90;99.90;;;;;;4901732;29;20206;-79
2021/04/19 02:16:23;;;;;;;17.50;13.70;;;7.90;99.90;;;;;;4901529;29;20289;-79
2021/04/19 02:18:53;;;;;;;14.90;13.20;;;7.80;99.90;;;;;;4900754;29;20278;-81
2021/04/19 02:21:26;;;;;;;16.23;14.30;;;7.70;99.90;;;;;;4900731;29;20200;-81
2021/04/19 02:23:58;;;;;;;15.40;13.48;;;7.70;99.90;;;;;;4901451;29;20214;-81
2021/04/19 02:26:30;;;;;;;14.05;12.65;;;7.60;99.90;;;;;;4901281;29;20259;-80
2021/04/19 02:29:02;;;;;;;15.07;13.57;;;7.60;99.90;;;;;;4901247;29;20202;-81
2021/04/19 02:31:33;;;;;;;15.02;12.50;;;7.60;99.90;;;;;;4901321;29;20218;-81
2021/04/19 02:34:02;;;;;;;18.00;15.70;;;7.60;99.90;;;;;;4900338;29;20211;-80
2021/04/19 02:36:29;;;;;;;16.90;15.05;;;7.60;99.90;;;;;;4900764;29;20677;-81
2021/04/19 02:38:57;;;;;;;18.65;15.52;;;7.60;99.90;;;;;;4900836;29;20267;-80
2021/04/19 02:41:26;;;;;;;15.93;14.15;;;7.70;99.90;;;;;;4900887;29;20231;-81
2021/04/19 02:43:54;;;;;;;16.20;14.63;;;7.70;99.90;;;;;;4900642;29;20207;-81
2021/04/19 02:46:20;;;;;;;17.02;14.30;;;7.80;99.90;;;;;;4901682;29;20234;-82
2021/04/19 02:48:47;;;;;;;14.88;13.30;;;7.90;99.90;;;;;;4903607;29;20241;-82
2021/04/19 02:51:15;;;;;;;17.17;15.05;;;7.90;99.90;;;;;;4906135;29;20215;-82
2021/04/19 02:53:44;;;;;;;16.83;15.07;;;8.00;99.90;;;;;;4908116;29;20207;-82
2021/04/19 02:56:11;;;;;;;20.23;15.07;;;8.00;99.90;;;;;;4906789;29;20240;-82
2021/04/19 02:58:44;;;;;;;15.35;13.95;;;8.10;99.90;;;;;;4906544;29;20219;-82
2021/04/19 03:01:16;;;;;;;16.40;14.80;;;8.00;99.90;;;;;;4905175;29;20573;-82
2021/04/19 03:03:45;;;;;;;18.08;15.95;;;7.90;99.90;;;;;;4904409;29;20211;-82
2021/04/19 03:06:14;;;;;;;16.75;14.38;;;7.60;99.90;;;;;;4904041;29;20232;-82
2021/04/19 03:08:48;;;;;;;17.08;15.00;;;7.60;99.90;;;;;;4904175;29;20816;-82
2021/04/19 03:11:18;;;;;;;17.25;14.55;;;7.60;99.90;;;;;;4903606;29;20214;-82
2021/04/19 03:13:46;;;;;;;17.45;14.50;;;7.60;99.90;;;;;;4903570;29;20206;-82
2021/04/19 03:16:13;;;;;;;16.80;14.68;;;7.60;99.90;;;;;;4903158;29;20242;-82
2021/04/19 03:18:43;;;;;;;16.27;14.15;;;7.60;99.90;;;;;;4903015;29;20219;-82
2021/04/19 03:21:12;;;;;;;16.25;13.95;;;7.60;99.90;;;;;;4904129;29;20590;-82
2021/04/19 03:23:41;;;;;;;14.57;13.18;;;7.50;99.90;;;;;;4904257;29;20215;-82
2021/04/19 03:26:10;;;;;;;17.42;15.55;;;7.60;99.90;;;;;;4904672;29;20238;-81
2021/04/19 03:28:37;;;;;;;16.45;14.75;;;7.60;99.90;;;;;;4906440;29;20301;-82
2021/04/19 03:31:08;;;;;;;18.48;15.13;;;7.70;99.90;;;;;;4906928;29;20226;-81
2021/04/19 03:33:38;;;;;;;16.13;14.38;;;7.60;99.90;;;;;;4905882;29;20211;-82
2021/04/19 03:36:07;;;;;;;16.73;15.07;;;7.70;99.90;;;;;;4906178;29;20235;-82
2021/04/19 03:38:35;;;;;;;16.67;14.82;;;7.70;99.90;;;;;;4909140;29;20208;-81
2021/04/19 03:41:01;;;;;;;18.45;14.23;;;7.70;99.90;;;;;;4908977;29;20619;-82
2021/04/19 03:43:29;;;;;;;18.65;16.05;;;7.70;99.90;;;;;;4908265;29;20563;-80
2021/04/19 03:46:02;;;;;;;19.58;17.58;;;7.70;99.90;;;;;;4907621;29;20234;-81
2021/04/19 03:48:30;;;;;;;18.88;16.90;;;7.70;99.90;;;;;;4907331;29;20259;-82
2021/04/19 03:50:59;;;;;;;18.05;16.35;;;7.70;99.90;;;;;;4907968;29;20211;-82
2021/04/19 03:53:27;;;;;;;17.40;15.57;;;7.60;99.90;;;;;;4908138;29;20245;-82
2021/04/19 03:55:55;;;;;;;18.02;15.02;;;7.50;99.90;;;;;;4908112;29;20246;-82
2021/04/19 03:58:24;;;;;;;17.90;15.13;;;7.40;99.90;;;;;;4908199;29;20281;-82
2021/04/19 04:00:52;;;;;;;17.67;14.95;;;7.30;99.90;;;;;;4907689;29;20234;-82
2021/04/19 04:03:19;;;;;;;18.83;17.05;;;7.30;99.90;;;;;;4907533;29;20211;-82
2021/04/19 04:05:48;;;;;;;18.85;16.23;;;7.30;99.90;;;;;;4908563;29;20235;-82
2021/04/19 04:08:16;;;;;;;19.27;17.13;;;7.30;99.90;;;;;;4908181;29;20805;-82
2021/04/19 04:10:43;;;;;;;18.42;16.33;;;7.40;99.90;;;;;;4907614;29;20216;-81
2021/04/19 04:13:09;;;;;;;22.10;16.95;;;7.50;99.90;;;;;;4907467;29;20226;-82
2021/04/19 04:15:35;;;;;;;18.95;17.08;;;7.60;99.90;;;;;;4907963;29;20246;-82
2021/04/19 04:18:02;;;;;;;20.35;18.25;;;7.70;99.90;;;;;;4907592;29;20258;-82
2021/04/19 04:20:28;;;;;;;21.08;16.75;;;7.80;99.90;;;;;;4907573;29;20765;-81
2021/04/19 04:22:56;;;;;;;21.80;19.42;;;7.80;99.90;;;;;;4907162;29;20211;-82
2021/04/19 04:25:23;;;;;;;24.33;18.60;;;7.90;99.90;;;;;;4907574;29;20231;-82
2021/04/19 04:27:49;;;;;;;22.83;19.30;;;8.00;99.90;;;;;;4907310;29;20218;-82
2021/04/19 04:30:16;;;;;;;22.65;18.13;;;8.00;99.90;;;;;;4907181;29;20686;-82
2021/04/19 04:32:42;;;;;;;20.98;18.77;;;8.00;99.90;;;;;;4906862;29;20218;-83
2021/04/19 04:35:09;;;;;;;22.67;17.85;;;8.10;99.90;;;;;;4907495;29;20242;-82
2021/04/19 04:37:36;;;;;;;21.50;18.95;;;8.10;99.90;;;;;;4907966;29;20215;-82
2021/04/19 04:40:03;;;;;;;19.75;17.70;;;8.10;99.90;;;;;;4907557;29;20673;-82
2021/04/19 04:42:31;;;;;;;21.55;18.80;;;8.20;99.90;;;;;;4907018;29;20224;-82
2021/04/19 04:44:58;;;;;;;21.80;19.45;;;8.20;99.90;;;;;;4906860;29;20238;-82
2021/04/19 04:47:32;;;;;;;24.75;19.80;;;8.30;99.90;;;;;;4906873;29;20212;-82
2021/04/19 04:50:07;;;;;;;20.05;18.00;;;8.30;99.90;;;;;;4905966;29;20219;-82
2021/04/19 04:52:38;;;;;;;21.70;19.58;;;8.40;99.90;;;;;;4906526;29;20238;-81
2021/04/19 04:55:09;;;;;;;21.98;18.23;;;8.40;99.90;;;;;;4905841;29;20236;-82
2021/04/19 04:57:37;;;;;;;19.65;17.48;;;8.40;99.90;;;;;;4906389;29;20200;-81
2021/04/19 05:00:04;;;;;;;24.60;19.83;;;8.30;99.90;;;;;;4906372;29;20585;-80
2021/04/19 05:02:32;;;;;;;17.00;14.95;;;8.30;99.90;;;;;;4905538;29;20866;-82
2021/04/19 05:04:58;;;;;;;18.92;16.00;;;8.30;99.90;;;;;;4905713;29;20229;-82
2021/04/19 05:07:25;;;;;;;18.05;16.33;;;8.30;99.90;;;;;;4905032;29;20214;-82
2021/04/19 05:09:52;;;;;;;22.33;17.20;;;8.30;99.90;;;;;;4904682;29;20208;-82
2021/04/19 05:12:19;;;;;;;18.73;16.55;;;8.30;99.90;;;;;;4905369;29;20211;-83
2021/04/19 05:14:58;;;;;;;22.05;17.83;;;8.30;99.90;;;;;;4904865;29;20582;-81
2021/04/19 05:17:24;;;;;;;22.60;20.20;;;8.30;99.90;;;;;;4904579;29;20211;-82
2021/04/19 05:19:51;;;;;;;22.98;19.00;;;8.30;99.90;;;;;;4904626;29;20226;-82
2021/04/19 05:22:18;;;;;;;21.67;19.48;;;8.30;99.90;;;;;;4904821;29;20212;-81
2021/04/19 05:24:44;;;;;;;21.77;17.58;;;8.30;99.90;;;;;;4905312;29;20373;-81
2021/04/19 05:27:12;;;;;;;22.25;18.45;;;8.30;99.90;;;;;;4904828;29;20211;-82
2021/04/19 05:29:40;;;;;;;22.77;19.30;;;8.30;99.90;;;;;;4905112;29;20210;-81
2021/04/19 05:32:08;;;;;;;24.63;18.27;;;8.30;99.90;;;;;;4905267;29;20221;-82
2021/04/19 05:34:35;;;;;;;21.17;18.65;;;8.30;99.90;;;;;;4904686;29;20227;-81
2021/04/19 05:37:02;;;;;;;24.80;21.65;;;8.30;99.90;;;;;;4904934;29;20214;-82
2021/04/19 05:39:31;;;;;;;23.55;19.15;;;8.30;99.90;;;;;;4905314;29;20240;-82
2021/04/19 05:41:57;;;;;;;21.15;19.13;;;8.40;99.90;;;;;;4905988;29;20208;-82
2021/04/19 05:44:25;;;;;;;23.80;19.80;;;8.30;99.90;;;;;;4904691;29;20207;-82
2021/04/19 05:46:52;;;;;;;21.20;18.90;;;8.40;99.90;;;;;;4905253;29;20211;-82
2021/04/19 05:49:19;;;;;;;23.70;19.90;;;8.40;99.90;;;;;;4904756;29;20219;-81
2021/04/19 05:51:46;;;;;;;24.50;20.90;;;8.40;99.90;;;;;;4905279;29;20319;-82
2021/04/19 05:54:15;;;;;;;21.63;19.30;;;8.40;99.90;;;;;;4904910;29;20215;-82
2021/04/19 05:56:50;;;;;;;23.65;19.83;;;8.40;99.90;;;;;;4905477;29;20231;-83
2021/04/19 05:59:23;;;;;;;22.15;17.33;;;8.40;99.90;;;;;;4910544;29;20211;-79
2021/04/19 06:01:53;;;;;;;28.38;19.15;;;8.40;99.90;;;;;;4917569;29;20215;-79
2021/04/19 06:04:26;;;;;;;21.08;18.88;;;8.30;99.90;;;;;;4919413;29;20207;-81
2021/04/19 06:06:57;;;;;;;21.67;19.38;;;8.30;99.90;;;;;;4913949;29;20196;-80
2021/04/19 06:09:27;;;;;;;26.50;19.75;;;8.30;99.90;;;;;;4907792;29;20215;-81
2021/04/19 06:11:59;;;;;;;20.50;18.40;;;8.30;99.90;;;;;;4906299;29;20597;-81
2021/04/19 06:14:31;;;;;;;22.65;20.25;;;8.30;99.90;;;;;;4906254;29;20215;-81
2021/04/19 06:17:01;;;;;;;20.70;18.13;;;8.30;99.90;;;;;;4906244;29;20214;-81
2021/04/19 06:19:28;;;;;;;22.08;19.90;;;8.40;99.90;;;;;;4906528;29;20327;-80
2021/04/19 06:21:55;;;;;;;22.40;18.80;;;8.40;99.90;;;;;;4905572;29;20211;-80
2021/04/19 06:24:21;;;;;;;22.75;20.13;;;8.40;99.90;;;;;;4904305;29;20216;-81
2021/04/19 06:26:48;;;;;;;23.30;20.77;;;8.40;99.90;;;;;;4904374;29;20207;-81
2021/04/19 06:29:16;;;;;;;25.75;21.48;;;8.50;99.90;;;;;;4904517;29;20273;-82
2021/04/19 06:31:49;;;;;;;21.05;18.92;;;8.40;99.90;;;;;;4903917;29;20231;-82
2021/04/19 06:34:18;;;;;;;21.30;19.17;;;8.50;99.90;;;;;;4903728;29;20216;-82
2021/04/19 06:36:45;;;;;;;22.15;20.08;;;8.50;99.90;;;;;;4903995;29;20227;-82
2021/04/19 06:39:13;;;;;;;22.05;19.65;;;8.50;99.90;;;;;;4903858;29;20213;-82
2021/04/19 06:41:40;;;;;;;26.08;19.60;;;8.50;99.90;;;;;;4903846;29;21075;-82
2021/04/19 06:44:06;;;;;;;22.30;19.90;;;8.50;99.90;;;;;;4903818;29;20275;-82
2021/04/19 06:46:35;;;;;;;24.33;20.17;;;8.50;99.90;;;;;;4904079;29;20207;-83
2021/04/19 06:49:02;;;;;;;26.63;22.17;;;8.40;99.90;;;;;;4904305;29;20215;-82
2021/04/19 06:51:31;;;;;;;25.75;20.25;;;8.40;99.90;;;;;;4903881;29;20673;-82
2021/04/19 06:53:59;;;;;;;23.00;20.52;;;8.40;99.90;;;;;;4903790;29;20207;-82
2021/04/19 06:56:28;;;;;;;21.80;19.67;;;8.40;99.90;;;;;;4903422;29;20237;-82
2021/04/19 06:58:55;;;;;;;27.00;22.20;;;8.40;99.90;;;;;;4903255;29;20245;-81
2021/04/19 07:01:23;;;;;;;24.25;18.70;;;8.40;99.90;;;;;;4915465;29;20201;-79
2021/04/19 07:03:55;;;;;;;26.35;20.70;;;8.40;99.90;;;;;;4914751;29;20806;-77
2021/04/19 07:06:26;;;;;;;24.05;21.45;;;8.40;99.90;;;;;;4916259;29;20228;-79
2021/04/19 07:09:00;;;;;;;27.48;21.63;;;8.40;99.90;;;;;;4912404;29;20292;-78
2021/04/19 07:11:28;;;;;;;20.17;18.08;;;8.40;99.90;;;;;;4909974;29;20214;-78
2021/04/19 07:13:55;;;;;;;22.02;19.65;;;8.50;99.90;;;;;;4904830;29;20270;-79
2021/04/19 07:16:21;;;;;;;20.90;18.83;;;8.60;99.90;;;;;;4901951;29;20218;-79
2021/04/19 07:18:49;;;;;;;23.83;19.05;;;8.60;99.90;;;;;;4913525;29;20215;-77
2021/04/19 07:21:16;;;;;;;27.23;20.00;;;8.60;99.90;;;;;;4911666;29;20754;-80
2021/04/19 07:23:43;;;;;;;20.08;17.15;;;8.60;99.90;;;;;;4900983;29;20219;-81
2021/04/19 07:26:10;;;;;;;22.50;19.02;;;8.70;99.90;;;;;;4900395;29;20378;-81
2021/04/19 07:28:37;;;;;;;20.30;17.25;;;8.70;99.90;;;;;;4901030;29;20220;-81
2021/04/19 07:31:04;;;;;;;24.30;19.15;;;8.70;99.90;;;;;;4894927;29;20670;-82
2021/04/19 07:33:33;;;;;;;22.05;18.90;;;8.70;99.90;;;;;;4867854;29;20216;-81
2021/04/19 07:36:18;;;;;;;21.23;17.25;;;8.70;99.90;;;;;;4864908;29;20232;-82
2021/04/19 07:38:45;;;;;;;19.40;17.40;;;8.70;99.90;;;;;;4864871;29;20212;-81
2021/04/19 07:41:13;;;;;;;22.77;18.20;;;8.70;99.90;;;;;;4894420;29;20257;-81
2021/04/19 07:43:41;;;;;;;19.13;17.13;;;8.70;99.90;;;;;;4900654;29;20202;-79
2021/04/19 07:46:10;;;;;;;23.25;18.13;;;8.70;99.90;;;;;;4883949;29;20238;-80
2021/04/19 07:48:38;;;;;;;21.70;19.55;;;8.70;99.90;;;;;;4883584;29;20219;-84
2021/04/19 07:51:24;;;;;;;22.13;19.38;;;8.70;99.90;;;;;;4886884;29;20205;-82
2021/04/19 07:53:51;;;;;;;20.98;18.45;;;8.70;99.90;;;;;;4865880;29;20273;-84
2021/04/19 07:56:18;;;;;;;24.98;18.90;;;8.80;99.90;;;;;;4869588;29;20296;-83
2021/04/19 07:58:45;;;;;;;21.73;19.35;;;8.80;99.90;;;;;;4870745;29;20338;-83
2021/04/19 08:01:11;;;;;;;22.67;20.38;;;8.80;99.90;;;;;;4870600;29;20216;-84
2021/04/19 08:03:41;;;;;;;20.75;18.50;;;8.80;99.90;;;;;;4871634;29;20219;-85
2021/04/19 08:06:18;;;;;;;21.13;18.30;;;8.80;99.90;;;;;;4868686;29;20232;-85
2021/04/19 08:08:44;;;;;;;21.88;18.98;;;8.80;99.90;;;;;;4870978;29;20241;-84
2021/04/19 08:11:12;;;;;;;19.95;17.50;;;8.80;99.90;;;;;;4871227;29;20279;-83
2021/04/19 08:13:40;;;;;;;24.38;20.50;;;8.80;99.90;;;;;;4871580;29;20217;-83
2021/04/19 08:16:14;;;;;;;23.25;18.85;;;8.80;99.90;;;;;;4868596;29;20268;-83
2021/04/19 08:18:41;;;;;;;21.42;19.30;;;8.80;99.90;;;;;;4868114;29;20220;-83
2021/04/19 08:21:07;;;;;;;19.60;17.55;;;8.90;99.90;;;;;;4867848;29;20218;-83
2021/04/19 08:23:38;;;;;;;22.75;19.73;;;8.90;99.90;;;;;;4871986;29;20209;-84
2021/04/19 08:26:05;;;;;;;21.27;18.63;;;8.90;99.90;;;;;;4873683;29;20243;-83
2021/04/19 08:28:53;;;;;;;20.48;18.08;;;9.00;99.90;;;;;;4883728;29;20212;-83
2021/04/19 10:20:26;;;;;;;26.00;20.95;;;9.40;99.90;;;;;;4675163;30;20212;-83
2021/04/19 10:23:07;;;;;;;22.58;20.23;;;9.40;99.90;;;;;;4689553;30;20225;-84
2021/04/19 10:29:51;;;;;;;25.07;19.70;;;9.60;99.90;;;;;;4805363;29;20468;-85
2021/04/19 10:32:36;;;;;;;28.33;20.85;;;9.60;99.90;;;;;;4862789;29;20469;-85
2021/04/19 10:35:39;;;;;;;22.43;20.00;;;9.70;99.90;;;;;;4923975;29;20260;-84
2021/04/19 10:38:13;;;;;;;21.30;18.87;;;9.80;99.90;;;;;;4920906;29;20535;-85
2021/04/19 10:40:47;;;;;;;23.75;20.38;;;9.80;99.90;;;;;;4923469;29;20452;-85
2021/04/19 10:44:22;;;;;;;;;;;;;;;;;;;;;
2021/04/19 10:51:25;;;;;;;;;;;;;;;;;;;;;
2021/04/19 10:54:11;;;;;;;23.87;20.97;;;10.10;99.90;;;;;;4913873;29;20546;-84
2021/04/19 10:57:21;;;;;;;26.30;22.13;;;10.10;99.90;;;;;;4922573;29;20511;-85
2021/04/19 11:03:35;;;;;;;34.23;21.90;;;10.20;99.90;;;;;;4891866;29;20436;-85
2021/04/19 11:06:32;;;;;;;21.43;19.13;;;10.30;99.90;;;;;;4906805;29;20484;-85
2021/04/19 11:21:55;;;;;;;;;;;;;;;;;;;;;
2021/04/19 11:25:10;;;;;;;23.80;17.67;;;10.10;99.90;;;;;;4919689;29;20551;-85
2021/04/19 11:28:18;;;;;;;23.40;19.00;;;10.10;99.90;;;;;;4856363;28;20512;-83
2021/04/19 11:31:25;;;;;;;21.00;18.97;;;10.20;99.90;;;;;;4880679;29;20483;-83
2021/04/19 11:40:01;;;;;;;;;;;;;;;;;;;;;
2021/04/19 11:43:11;;;;;;;;;;;;;;;;;;;;;
2021/04/19 11:49:18;;;;;;;;;;;;;;;;;;;;;
2021/04/19 11:55:06;;;;;;;18.33;16.10;;;10.40;99.90;;;;;;4902640;29;20492;-85
2021/04/19 11:57:47;;;;;;;14.70;13.17;;;10.30;99.90;;;;;;4923489;29;20433;-85
2021/04/19 12:00:34;;;;;;;;;;;;;;;;;;;;;
2021/04/19 12:06:47;;;;;;;;;;;;;;;;;;;;;
2021/04/19 12:12:53;;;;;;;;;;;;;;;;;;;;;
2021/04/19 12:15:35;;;;;;;15.80;12.70;;;10.90;99.90;;;;;;4902087;29;20598;-84
2021/04/19 12:24:31;;;;;;;17.67;15.20;;;11.30;99.90;;;;;;4902022;29;20465;-85
2021/04/19 12:27:20;;;;;;;17.27;13.00;;;11.30;99.90;;;;;;4925074;29;20464;-84
2021/04/19 12:29:55;;;;;;;18.13;16.33;;;11.30;99.90;;;;;;4910671;29;20765;-85
2021/04/19 12:32:47;;;;;;;16.17;14.37;;;11.30;99.90;;;;;;4924666;29;20478;-85
2021/04/19 12:41:48;;;;;;;;;;;;;;;;;;;;;
2021/04/19 12:44:30;;;;;;;17.30;15.30;;;11.10;99.90;;;;;;4924290;29;20563;-84
2021/04/19 12:47:20;;;;;;;17.80;14.30;;;11.10;99.90;;;;;;4924742;29;20463;-84
2021/04/19 12:59:20;;;;;;;18.50;14.20;;;10.90;99.90;;;;;;4846957;29;20499;-84
2021/04/19 13:01:50;;;;;;;16.43;14.63;;;10.80;99.90;;;;;;4913614;29;20481;-84
2021/04/19 13:07:15;;;;;;;16.77;14.90;;;10.70;99.90;;;;;;4918713;29;20462;-83
2021/04/19 13:09:49;;;;;;;17.63;15.77;;;10.70;99.90;;;;;;4924284;29;20465;-83
2021/04/19 13:12:28;;;;;;;18.33;15.00;;;10.70;99.90;;;;;;4923384;29;20470;-84
2021/04/19 13:15:18;;;;;;;19.15;16.20;;;10.80;99.90;;;;;;4924584;29;20242;-84
2021/04/19 13:17:48;;;;;;;16.63;14.53;;;10.80;99.90;;;;;;4924056;29;20225;-84
2021/04/19 13:20:24;;;;;;;20.50;16.90;;;11.00;99.90;;;;;;4923913;29;20453;-83
2021/04/19 13:23:03;;;;;;;19.90;17.57;;;11.20;99.90;;;;;;4923836;29;20463;-84
2021/04/19 13:25:41;;;;;;;;;;;;;;;;;;;;;
2021/04/19 13:28:11;;;;;;;20.60;18.50;;;11.00;99.90;;;;;;4923480;29;20527;-84
2021/04/19 13:30:45;;;;;;;20.47;18.37;;;10.60;99.90;;;;;;4923995;29;20552;-83
2021/04/19 13:33:13;;;;;;;21.07;16.90;;;10.80;99.90;;;;;;4923256;29;20810;-83
2021/04/19 13:35:49;;;;;;;20.87;16.97;;;10.90;99.90;;;;;;4923571;29;20500;-84
2021/04/19 13:38:15;;;;;;;18.80;15.67;;;11.00;99.90;;;;;;4923070;29;20574;-84
2021/04/19 13:40:51;;;;;;;20.10;16.77;;;11.20;99.90;;;;;;4924165;29;20552;-83
2021/04/19 13:43:47;;;;;;;21.00;16.83;;;11.20;99.90;;;;;;4923073;29;20461;-83
2021/04/19 13:46:51;;;;;;;20.47;18.27;;;11.10;99.90;;;;;;4935772;29;20467;-83
2021/04/19 13:50:02;;;;;;;;;;;;;;;;;;;;;
2021/04/19 13:55:35;;;;;;;;;;;;;;;;;;;;;
2021/04/19 14:01:47;;;;;;;18.77;16.57;;;10.60;99.90;;;;;;4921861;29;20963;-83
2021/04/19 14:04:23;;;;;;;19.70;16.90;;;10.70;99.90;;;;;;4909463;29;20468;-84
2021/04/19 14:06:49;;;;;;;19.90;16.17;;;10.80;99.90;;;;;;4923156;29;20483;-84
2021/04/19 14:09:20;;;;;;;19.37;16.00;;;10.90;99.90;;;;;;4922405;29;20517;-84
2021/04/19 14:11:56;;;;;;;23.17;15.77;;;10.50;99.90;;;;;;4922742;29;20457;-84
2021/04/19 14:14:24;;;;;;;23.83;18.43;;;10.30;99.90;;;;;;4922505;29;20459;-84
2021/04/19 14:17:05;;;;;;;25.07;20.27;;;10.10;99.90;;;;;;4922473;29;20543;-84
2021/04/19 14:19:49;;;;;;;20.88;18.73;;;10.00;99.90;;;;;;4922922;29;20445;-84
2021/04/19 14:22:22;;;;;;;21.70;18.50;;;10.00;99.90;;;;;;4923156;29;20256;-84
2021/04/19 14:25:17;;;;;;;20.67;18.10;;;10.10;99.90;;;;;;4923345;29;20476;-84
2021/04/19 14:27:52;;;;;;;21.30;17.20;;;10.30;99.90;;;;;;4918228;29;20533;-84
2021/04/19 14:30:28;;;;;;;23.63;18.00;;;10.30;99.90;;;;;;4922304;29;20963;-83
2021/04/19 14:33:09;;;;;;;21.57;18.20;;;10.30;99.90;;;;;;4922939;29;20459;-84
2021/04/19 14:35:42;;;;;;;19.33;16.60;;;10.40;99.90;;;;;;4922178;29;20489;-84
2021/04/19 14:38:33;;;;;;;19.17;17.17;;;10.50;99.90;;;;;;4922327;29;20456;-84
2021/04/19 14:41:22;;;;;;;;;;;;;;;;;;;;;
2021/04/19 14:43:56;;;;;;;18.50;16.40;;;10.60;99.90;;;;;;4921906;29;20665;-84
2021/04/19 14:49:33;;;;;;;21.10;16.20;;;10.60;99.90;;;;;;4808670;29;20474;-83
2021/04/19 14:52:16;;;;;;;16.03;14.23;;;10.60;99.90;;;;;;4890737;29;20448;-84
2021/04/19 14:54:47;;;;;;;21.50;15.20;;;10.50;99.90;;;;;;4919985;29;20480;-84
2021/04/19 14:57:24;;;;;;;21.50;15.53;;;10.40;99.90;;;;;;4922176;29;20538;-84
2021/04/19 15:00:43;;;;;;;;;;;;;;;;;;;;;
2021/04/19 15:03:22;;;;;;;;;;;;;;;;;;;;;
2021/04/19 15:05:52;;;;;;;18.27;14.33;;;10.30;99.90;;;;;;4921600;29;20547;-84
2021/04/19 15:08:35;;;;;;;18.35;13.77;;;10.20;99.90;;;;;;4921975;29;20464;-84
2021/04/19 15:11:18;;;;;;;15.43;13.40;;;10.20;99.90;;;;;;4921647;29;20228;-84
2021/04/19 15:13:44;;;;;;;17.37;14.33;;;10.10;99.90;;;;;;4921925;29;20459;-84
2021/04/19 15:16:32;;;;;;;17.50;15.80;;;10.20;99.90;;;;;;4921924;29;20554;-84
2021/04/19 15:19:24;;;;;;;16.00;13.90;;;10.10;99.90;;;;;;4922006;29;20456;-84
2021/04/19 15:21:50;;;;;;;13.97;12.57;;;10.00;99.90;;;;;;4921053;29;20820;-84
2021/04/19 15:24:18;;;;;;;17.63;13.87;;;10.20;99.90;;;;;;4921521;29;20828;-84
2021/04/19 15:26:44;;;;;;;17.33;15.63;;;10.30;99.90;;;;;;4921771;29;20455;-84
2021/04/19 15:29:10;;;;;;;16.53;14.77;;;10.20;99.90;;;;;;4921284;29;20456;-84
2021/04/19 15:31:41;;;;;;;16.63;14.47;;;10.30;99.90;;;;;;4922048;29;20476;-84
2021/04/19 15:34:08;;;;;;;19.70;16.40;;;10.30;99.90;;;;;;4926123;29;21027;-84
2021/04/19 15:36:34;;;;;;;15.13;13.53;;;10.20;99.90;;;;;;4925215;29;20499;-83
2021/04/19 15:39:01;;;;;;;22.13;15.20;;;10.30;99.90;;;;;;4926132;29;20503;-84
2021/04/19 15:41:28;;;;;;;17.80;16.00;;;10.50;99.90;;;;;;4924807;29;20463;-84
2021/04/19 15:43:54;;;;;;;15.53;13.93;;;10.70;99.90;;;;;;4925410;29;20536;-84
2021/04/19 15:46:20;;;;;;;14.43;13.13;;;10.70;99.90;;;;;;4924897;29;20915;-84
2021/04/19 15:48:47;;;;;;;14.00;12.43;;;10.80;99.90;;;;;;4924984;29;20457;-84
2021/04/19 15:51:13;;;;;;;14.87;13.37;;;10.90;99.90;;;;;;4924836;29;20473;-84
2021/04/19 15:53:39;;;;;;;16.07;14.00;;;10.80;99.90;;;;;;4924488;29;20461;-84
2021/04/19 15:56:06;;;;;;;17.87;15.50;;;10.60;99.90;;;;;;4924576;29;21038;-83
2021/04/19 15:58:33;;;;;;;16.33;14.60;;;10.40;99.90;;;;;;4924759;29;20955;-84
2021/04/19 16:01:00;;;;;;;17.70;15.80;;;10.40;99.90;;;;;;4924783;29;20471;-83
2021/04/19 16:03:26;;;;;;;15.70;14.20;;;10.30;99.90;;;;;;4924566;29;20457;-84
2021/04/19 16:05:54;;;;;;;17.23;13.97;;;10.30;99.90;;;;;;4925186;29;20480;-84
2021/04/19 16:08:20;;;;;;;14.85;13.30;;;10.20;99.90;;;;;;4926122;29;20463;-83
2021/04/19 16:10:47;;;;;;;18.80;16.80;;;10.10;99.90;;;;;;4928293;29;20287;-84
2021/04/19 16:13:15;;;;;;;14.03;12.57;;;10.20;99.90;;;;;;4928600;29;20539;-84
2021/04/19 16:15:43;;;;;;;15.07;13.48;;;10.40;99.90;;;;;;4928695;29;20640;-84
2021/04/19 16:18:09;;;;;;;15.63;13.88;;;10.40;99.90;;;;;;4935376;29;20200;-83
2021/04/19 16:20:35;;;;;;;17.07;14.97;;;10.50;99.90;;;;;;4930724;29;20215;-84
2021/04/19 16:23:03;;;;;;;17.40;15.35;;;10.50;99.90;;;;;;4931237;29;20447;-85
2021/04/19 16:25:30;;;;;;;15.02;13.50;;;10.60;99.90;;;;;;4958273;23;20239;-84